createdAt,value
2022-10-24T00:00:35.354Z,13.12
2022-10-24T00:03:28.234Z,13.03
2022-10-24T00:06:00.440Z,12.96
2022-10-24T00:08:32.676Z,12.99
2022-10-24T00:11:09.655Z,12.96
2022-10-24T00:13:42.767Z,12.95
2022-10-24T00:16:15.916Z,12.94
2022-10-24T00:18:48.607Z,12.92
2022-10-24T00:21:21.411Z,12.84
2022-10-24T00:23:53.552Z,12.84
2022-10-24T00:26:25.787Z,12.82
2022-10-24T00:28:58.113Z,12.78
2022-10-24T00:31:30.745Z,12.70
2022-10-24T00:34:03.436Z,12.70
2022-10-24T00:36:35.919Z,12.70
2022-10-24T00:39:08.182Z,12.70
2022-10-24T00:41:43.988Z,12.69
2022-10-24T00:44:19.948Z,12.66
2022-10-24T00:46:56.420Z,12.61
2022-10-24T00:49:33.549Z,12.62
2022-10-24T00:52:09.341Z,12.63
2022-10-24T00:54:40.845Z,12.61
2022-10-24T00:57:20.600Z,12.55
2022-10-24T00:59:56.638Z,12.43
2022-10-24T01:02:29.215Z,12.37
2022-10-24T01:05:01.647Z,12.34
2022-10-24T01:07:48.008Z,12.32
2022-10-24T01:13:21.032Z,12.32
2022-10-24T01:15:57.689Z,12.33
2022-10-24T01:18:34.077Z,12.32
2022-10-24T01:21:25.138Z,12.29
2022-10-24T01:24:23.519Z,12.25
2022-10-24T01:27:27.716Z,12.23
2022-10-24T01:30:09.041Z,12.20
2022-10-24T01:32:47.892Z,12.18
2022-10-24T01:35:27.904Z,12.21
2022-10-24T01:38:10.649Z,12.19
2022-10-24T01:40:51.855Z,12.20
2022-10-24T01:43:28.331Z,12.17
2022-10-24T01:46:06.082Z,12.11
2022-10-24T01:48:42.566Z,12.07
2022-10-24T01:51:17.194Z,12.03
2022-10-24T01:53:51.650Z,11.97
2022-10-24T01:56:25.427Z,11.89
2022-10-24T01:59:07.698Z,11.83
2022-10-24T02:01:40.766Z,11.79
2022-10-24T02:04:14.631Z,11.75
2022-10-24T02:06:48.933Z,11.76
2022-10-24T02:09:22.550Z,11.65
2022-10-24T02:11:58.608Z,11.69
2022-10-24T02:14:34.896Z,11.72
2022-10-24T02:17:07.651Z,11.69
2022-10-24T02:19:40.397Z,11.73
2022-10-24T02:22:18.603Z,11.70
2022-10-24T02:24:55.217Z,11.69
2022-10-24T02:27:31.377Z,11.70
2022-10-24T02:30:06.916Z,11.73
2022-10-24T02:32:41.833Z,11.69
2022-10-24T02:35:16.979Z,11.58
2022-10-24T02:37:53.468Z,11.62
2022-10-24T02:40:26.531Z,11.64
2022-10-24T02:42:59.848Z,11.64
2022-10-24T02:45:33.643Z,11.62
2022-10-24T02:48:11.356Z,11.61
2022-10-24T02:50:45.490Z,11.63
2022-10-24T02:53:20.599Z,11.71
2022-10-24T02:55:52.770Z,11.71
2022-10-24T02:58:25.181Z,11.67
2022-10-24T03:00:57.451Z,11.59
2022-10-24T03:03:29.701Z,11.55
2022-10-24T03:06:01.854Z,11.56
2022-10-24T03:08:34.067Z,11.58
2022-10-24T03:11:06.701Z,11.60
2022-10-24T03:13:38.889Z,11.60
2022-10-24T03:16:13.922Z,11.57
2022-10-24T03:18:46.587Z,11.60
2022-10-24T03:21:18.660Z,11.58
2022-10-24T03:23:51.102Z,11.60
2022-10-24T03:26:23.271Z,11.59
2022-10-24T03:28:55.406Z,11.60
2022-10-24T03:31:27.946Z,11.56
2022-10-24T03:34:00.484Z,11.49
2022-10-24T03:36:32.677Z,11.40
2022-10-24T03:39:04.936Z,11.42
2022-10-24T03:41:37.092Z,11.38
2022-10-24T03:44:09.372Z,11.35
2022-10-24T03:46:41.569Z,11.40
2022-10-24T03:49:13.816Z,11.39
2022-10-24T03:51:45.944Z,11.37
2022-10-24T03:54:18.539Z,11.32
2022-10-24T03:56:50.643Z,11.40
2022-10-24T03:59:22.834Z,11.32
2022-10-24T04:01:55.324Z,11.33
2022-10-24T04:04:27.518Z,11.34
2022-10-24T04:07:00.445Z,11.34
2022-10-24T04:09:32.605Z,11.33
2022-10-24T04:12:04.940Z,11.34
2022-10-24T04:14:37.219Z,11.35
2022-10-24T04:17:09.677Z,11.34
2022-10-24T04:19:41.996Z,11.31
2022-10-24T04:22:14.219Z,11.37
2022-10-24T04:24:46.723Z,11.40
2022-10-24T04:27:19.626Z,11.40
2022-10-24T04:29:51.957Z,11.40
2022-10-24T04:32:24.169Z,11.36
2022-10-24T04:34:56.293Z,11.33
2022-10-24T04:37:28.568Z,11.31
2022-10-24T04:40:00.697Z,11.32
2022-10-24T04:42:33.199Z,11.34
2022-10-24T04:45:05.671Z,11.36
2022-10-24T04:47:38.123Z,11.31
2022-10-24T04:50:11.676Z,11.38
2022-10-24T04:52:44.012Z,11.41
2022-10-24T04:55:16.412Z,11.43
2022-10-24T04:57:48.613Z,11.39
2022-10-24T05:00:21.527Z,11.47
2022-10-24T05:02:56.705Z,11.49
2022-10-24T05:05:31.338Z,11.50
2022-10-24T05:08:03.423Z,11.52
2022-10-24T05:10:35.577Z,11.54
2022-10-24T05:13:07.717Z,11.56
2022-10-24T05:15:40.141Z,11.60
2022-10-24T05:18:12.983Z,11.67
2022-10-24T05:20:45.247Z,11.76
2022-10-24T05:23:17.527Z,11.86
2022-10-24T05:25:49.921Z,12.03
2022-10-24T05:28:22.194Z,12.21
2022-10-24T05:30:54.546Z,12.40
2022-10-24T05:33:26.827Z,12.73
2022-10-24T05:35:59.033Z,13.08
2022-10-24T05:38:31.196Z,13.47
2022-10-24T05:41:03.362Z,13.81
2022-10-24T05:43:35.538Z,13.95
2022-10-24T05:46:10.232Z,13.93
2022-10-24T05:48:42.446Z,13.87
2022-10-24T05:51:14.576Z,13.86
2022-10-24T05:53:46.805Z,13.82
2022-10-24T05:56:18.967Z,13.81
2022-10-24T05:58:51.124Z,13.76
2022-10-24T06:01:23.271Z,13.69
2022-10-24T06:03:55.565Z,13.64
2022-10-24T06:06:27.985Z,13.61
2022-10-24T06:09:00.093Z,13.70
2022-10-24T06:11:32.433Z,13.95
2022-10-24T06:14:08.769Z,14.23
2022-10-24T06:16:51.264Z,14.57
2022-10-24T06:19:23.368Z,15.03
2022-10-24T06:21:55.651Z,15.47
2022-10-24T06:24:27.952Z,15.98
2022-10-24T06:27:00.223Z,16.33
2022-10-24T06:29:32.731Z,16.70
2022-10-24T06:32:05.604Z,17.00
2022-10-24T06:34:37.905Z,17.31
2022-10-24T06:37:10.168Z,17.53
2022-10-24T06:39:42.312Z,17.82
2022-10-24T06:42:14.491Z,18.10
2022-10-24T06:44:46.738Z,18.41
2022-10-24T06:47:19.137Z,18.67
2022-10-24T06:49:51.267Z,18.83
2022-10-24T06:52:23.480Z,19.08
2022-10-24T06:54:56.052Z,19.28
2022-10-24T06:57:28.171Z,19.46
2022-10-24T07:00:00.295Z,19.57
2022-10-24T07:02:32.660Z,19.62
2022-10-24T07:05:05.120Z,19.67
2022-10-24T07:07:37.263Z,19.65
2022-10-24T07:10:13.226Z,19.69
2022-10-24T07:12:46.015Z,19.71
2022-10-24T07:15:18.560Z,19.64
2022-10-24T07:17:50.688Z,19.50
2022-10-24T07:20:22.902Z,19.37
2022-10-24T07:22:55.105Z,19.20
2022-10-24T07:25:27.266Z,19.24
2022-10-24T07:27:59.369Z,19.31
2022-10-24T07:30:31.582Z,19.35
2022-10-24T07:33:03.777Z,19.40
2022-10-24T07:35:36.273Z,19.45
2022-10-24T07:38:08.381Z,19.66
2022-10-24T07:40:40.556Z,19.83
2022-10-24T07:43:13.238Z,20.09
2022-10-24T07:45:49.103Z,20.31
2022-10-24T07:48:24.380Z,20.53
2022-10-24T07:50:56.512Z,20.66
2022-10-24T07:53:28.800Z,20.78
2022-10-24T07:56:01.398Z,20.97
2022-10-24T07:58:33.588Z,21.23
2022-10-24T08:01:08.600Z,21.41
2022-10-24T08:03:40.848Z,21.58
2022-10-24T08:06:15.666Z,21.73
2022-10-24T08:08:48.385Z,21.94
2022-10-24T08:11:23.588Z,22.13
2022-10-24T08:13:57.289Z,22.30
2022-10-24T08:16:30.169Z,22.44
2022-10-24T08:19:02.459Z,22.38
2022-10-24T08:21:36.385Z,22.52
2022-10-24T08:24:09.400Z,22.70
2022-10-24T08:26:41.598Z,22.87
2022-10-24T08:29:15.132Z,23.07
2022-10-24T08:31:47.261Z,23.21
2022-10-24T08:34:19.863Z,23.38
2022-10-24T08:36:52.420Z,23.51
2022-10-24T08:39:24.528Z,23.66
2022-10-24T08:42:00.509Z,23.82
2022-10-24T08:44:35.734Z,23.87
2022-10-24T08:47:14.850Z,23.80
2022-10-24T08:49:51.398Z,23.87
2022-10-24T08:52:29.861Z,23.90
2022-10-24T08:55:07.276Z,23.96
2022-10-24T08:57:44.779Z,23.98
2022-10-24T09:00:22.513Z,23.91
2022-10-24T09:03:03.330Z,23.86
2022-10-24T09:05:42.496Z,23.93
2022-10-24T09:08:25.799Z,23.86
2022-10-24T09:11:01.365Z,23.77
2022-10-24T09:13:35.276Z,23.73
2022-10-24T09:16:08.165Z,23.70
2022-10-24T09:18:43.308Z,23.63
2022-10-24T09:21:18.241Z,23.52
2022-10-24T09:23:52.050Z,23.67
2022-10-24T09:26:30.145Z,23.73
2022-10-24T09:29:02.415Z,23.72
2022-10-24T09:31:34.652Z,23.72
2022-10-24T09:34:06.845Z,23.74
2022-10-24T09:36:40.783Z,23.76
2022-10-24T09:39:30.031Z,23.79
2022-10-24T09:42:03.332Z,23.70
2022-10-24T09:44:38.552Z,23.67
2022-10-24T09:47:25.996Z,23.69
2022-10-24T09:49:58.569Z,23.75
2022-10-24T09:52:33.017Z,23.96
2022-10-24T09:55:17.774Z,24.11
2022-10-24T09:57:54.040Z,24.08
2022-10-24T10:00:29.769Z,24.07
2022-10-24T10:03:05.455Z,24.16
2022-10-24T10:05:49.582Z,24.18
2022-10-24T10:08:25.111Z,24.26
2022-10-24T10:11:07.525Z,24.31
2022-10-24T10:13:50.588Z,24.27
2022-10-24T10:16:28.045Z,24.27
2022-10-24T10:19:07.964Z,24.26
2022-10-24T10:21:58.068Z,24.45
2022-10-24T10:24:40.818Z,24.46
2022-10-24T10:27:32.345Z,24.32
2022-10-24T10:30:20.905Z,24.18
2022-10-24T10:33:07.133Z,24.29
2022-10-24T10:35:47.491Z,24.46
2022-10-24T10:38:38.011Z,24.68
2022-10-24T10:41:19.697Z,24.75
2022-10-24T10:44:03.021Z,24.72
2022-10-24T10:46:45.553Z,24.76
2022-10-24T10:49:25.592Z,24.81
2022-10-24T10:52:03.895Z,24.87
2022-10-24T10:55:01.411Z,25.00
2022-10-24T10:57:41.821Z,25.02
2022-10-24T11:00:18.224Z,24.96
2022-10-24T11:03:03.901Z,25.00
2022-10-24T11:05:54.263Z,24.97
2022-10-24T11:08:49.439Z,24.85
2022-10-24T11:11:26.231Z,24.80
2022-10-24T11:14:03.544Z,24.67
2022-10-24T11:16:37.145Z,24.56
2022-10-24T11:19:27.200Z,24.29
2022-10-24T11:22:01.859Z,23.93
2022-10-24T11:24:40.249Z,23.85
2022-10-24T11:27:17.669Z,23.79
2022-10-24T11:29:56.588Z,23.69
2022-10-24T11:32:33.856Z,23.63
2022-10-24T11:35:16.009Z,23.56
2022-10-24T11:37:51.939Z,23.39
2022-10-24T11:43:16.137Z,23.27
2022-10-24T11:45:53.605Z,23.20
2022-10-24T11:48:31.717Z,23.13
2022-10-24T11:51:10.029Z,23.07
2022-10-24T11:53:54.800Z,23.05
2022-10-24T11:56:34.247Z,23.04
2022-10-24T11:59:10.672Z,22.97
2022-10-24T12:02:03.676Z,22.86
2022-10-24T12:04:57.460Z,22.84
2022-10-24T12:08:08.495Z,22.78
2022-10-24T12:11:14.097Z,22.70
2022-10-24T12:16:52.692Z,22.53
2022-10-24T12:19:26.489Z,22.46
2022-10-24T12:22:02.045Z,22.43
2022-10-24T12:24:34.675Z,22.43
2022-10-24T12:27:20.925Z,22.39
2022-10-24T12:30:15.867Z,22.36
2022-10-24T12:32:51.213Z,22.33
2022-10-24T12:35:47.144Z,22.34
2022-10-24T12:38:42.646Z,22.37
2022-10-24T12:41:46.565Z,22.37
2022-10-24T12:44:41.287Z,22.30
2022-10-24T12:47:35.940Z,22.23
2022-10-24T12:50:42.471Z,22.18
2022-10-24T12:53:31.884Z,22.13
2022-10-24T12:59:04.763Z,22.01
2022-10-24T13:01:38.354Z,21.91
2022-10-24T13:04:47.275Z,21.86
2022-10-24T13:07:51.844Z,21.79
2022-10-24T13:10:35.789Z,21.76
2022-10-24T13:13:30.476Z,21.76
2022-10-24T13:16:08.706Z,21.76
2022-10-24T13:18:54.161Z,21.76
2022-10-24T13:21:32.277Z,21.76
2022-10-24T13:24:30.819Z,21.77
2022-10-24T13:27:27.196Z,21.77
2022-10-24T13:30:20.113Z,21.75
2022-10-24T13:32:52.317Z,21.72
2022-10-24T13:35:27.552Z,21.75
2022-10-24T13:38:04.747Z,21.75
2022-10-24T13:40:43.156Z,21.75
2022-10-24T13:43:19.892Z,21.73
2022-10-24T13:46:04.287Z,21.71
2022-10-24T13:48:41.309Z,21.68
2022-10-24T13:51:22.949Z,21.66
2022-10-24T13:53:57.634Z,21.64
2022-10-24T13:56:33.128Z,21.63
2022-10-24T13:59:07.772Z,21.63
2022-10-24T14:01:41.745Z,21.60
2022-10-24T14:04:13.884Z,21.56
2022-10-24T14:06:47.223Z,21.55
2022-10-24T14:09:19.492Z,21.54
2022-10-24T14:11:52.240Z,21.52
2022-10-24T14:14:30.724Z,21.56
2022-10-24T14:17:24.003Z,21.56
2022-10-24T14:19:59.713Z,21.58
2022-10-24T14:22:37.117Z,21.56
2022-10-24T14:25:24.195Z,21.55
2022-10-24T14:27:59.528Z,21.52
2022-10-24T14:30:35.109Z,21.54
2022-10-24T14:33:22.400Z,21.54
2022-10-24T14:35:57.922Z,21.52
2022-10-24T14:38:31.688Z,21.51
2022-10-24T14:41:09.565Z,21.48
2022-10-24T14:43:45.014Z,21.45
2022-10-24T14:46:38.895Z,21.39
2022-10-24T14:49:33.990Z,21.31
2022-10-24T14:52:13.325Z,21.25
2022-10-24T14:54:53.595Z,21.20
2022-10-24T14:57:26.918Z,21.17
2022-10-24T15:00:02.822Z,21.14
2022-10-24T15:02:41.969Z,21.11
2022-10-24T15:05:34.190Z,21.08
2022-10-24T15:08:26.920Z,21.03
2022-10-24T15:11:15.353Z,20.97
2022-10-24T15:14:05.628Z,20.89
2022-10-24T15:16:42.264Z,20.83
2022-10-24T15:19:19.472Z,20.77
2022-10-24T15:21:52.153Z,20.71
2022-10-24T15:24:27.204Z,20.65
2022-10-24T15:27:14.247Z,20.59
2022-10-24T15:29:46.652Z,20.51
2022-10-24T15:32:18.813Z,20.45
2022-10-24T15:34:54.256Z,20.39
2022-10-24T15:37:28.718Z,20.32
2022-10-24T15:40:06.233Z,20.27
2022-10-24T15:42:38.520Z,20.22
2022-10-24T15:45:16.377Z,20.19
2022-10-24T15:47:48.543Z,20.13
2022-10-24T15:53:02.688Z,20.02
2022-10-24T15:55:35.040Z,19.91
2022-10-24T15:58:11.542Z,19.91
2022-10-24T16:00:43.891Z,19.86
2022-10-24T16:03:23.837Z,19.79
2022-10-24T16:05:58.380Z,19.73
2022-10-24T16:08:30.549Z,19.66
2022-10-24T16:11:06.184Z,19.59
2022-10-24T16:13:42.291Z,19.51
2022-10-24T16:16:14.481Z,19.41
2022-10-24T16:18:49.968Z,19.33
2022-10-24T16:21:23.876Z,19.24
2022-10-24T16:23:56.060Z,19.15
2022-10-24T16:26:28.400Z,19.07
2022-10-24T16:29:00.723Z,18.99
2022-10-24T16:31:33.429Z,18.91
2022-10-24T16:34:07.497Z,18.83
2022-10-24T16:36:41.078Z,18.75
2022-10-24T16:39:14.632Z,18.67
2022-10-24T16:41:46.912Z,18.60
2022-10-24T16:44:19.560Z,18.53
2022-10-24T16:46:53.431Z,18.46
2022-10-24T16:49:25.883Z,18.38
2022-10-24T16:52:00.277Z,18.32
2022-10-24T16:54:32.664Z,18.26
2022-10-24T16:57:04.884Z,18.22
2022-10-24T16:59:37.225Z,18.17
2022-10-24T17:02:10.282Z,18.13
2022-10-24T17:04:44.751Z,18.06
2022-10-24T17:07:18.513Z,18.02
2022-10-24T17:09:52.070Z,17.96
2022-10-24T17:12:24.201Z,17.90
2022-10-24T17:14:56.565Z,17.83
2022-10-24T17:17:28.950Z,17.77
2022-10-24T17:20:01.136Z,17.73
2022-10-24T17:25:18.847Z,17.64
2022-10-24T17:27:52.285Z,17.60
2022-10-24T17:30:26.886Z,17.56
2022-10-24T17:33:00.592Z,17.54
2022-10-24T17:35:33.712Z,17.48
2022-10-24T17:38:13.422Z,17.46
2022-10-24T17:40:47.964Z,17.46
2022-10-24T17:43:24.262Z,17.43
2022-10-24T17:45:58.451Z,17.41
2022-10-24T17:48:31.080Z,17.43
2022-10-24T17:51:03.211Z,17.46
2022-10-24T17:53:35.360Z,17.47
2022-10-24T17:56:08.387Z,17.40
2022-10-24T17:58:40.539Z,17.38
2022-10-24T18:01:15.367Z,17.32
2022-10-24T18:03:47.578Z,17.28
2022-10-24T18:06:19.956Z,17.25
2022-10-24T18:08:55.911Z,17.20
2022-10-24T18:11:28.054Z,17.18
2022-10-24T18:14:00.191Z,17.22
2022-10-24T18:16:32.392Z,17.25
2022-10-24T18:19:04.929Z,17.28
2022-10-24T18:21:37.199Z,17.27
2022-10-24T18:24:10.613Z,17.24
2022-10-24T18:26:42.785Z,17.22
2022-10-24T18:29:14.941Z,17.23
2022-10-24T18:31:47.133Z,17.28
2022-10-24T18:34:19.318Z,17.32
2022-10-24T18:36:51.461Z,17.35
2022-10-24T18:39:26.370Z,17.36
2022-10-24T18:42:05.585Z,17.33
2022-10-24T18:44:38.988Z,17.29
2022-10-24T18:47:20.700Z,17.22
2022-10-24T18:49:57.486Z,17.16
2022-10-24T18:52:41.513Z,17.13
2022-10-24T18:55:21.967Z,17.07
2022-10-24T18:57:54.854Z,17.03
2022-10-24T19:00:29.845Z,16.99
2022-10-24T19:03:18.530Z,16.95
2022-10-24T19:05:56.657Z,16.91
2022-10-24T19:08:29.786Z,16.87
2022-10-24T19:11:02.631Z,16.84
2022-10-24T19:13:35.464Z,16.80
2022-10-24T19:16:12.472Z,16.76
2022-10-24T19:18:53.057Z,16.72
2022-10-24T19:21:26.361Z,16.69
2022-10-24T19:23:58.540Z,16.67
2022-10-24T19:26:31.303Z,16.65
2022-10-24T19:29:05.766Z,16.62
2022-10-24T19:31:38.587Z,16.60
2022-10-24T19:34:12.145Z,16.57
2022-10-24T19:36:44.363Z,16.56
2022-10-24T19:39:17.017Z,16.54
2022-10-24T19:41:49.193Z,16.52
2022-10-24T19:44:22.148Z,16.49
2022-10-24T19:46:54.298Z,16.47
2022-10-24T19:49:26.470Z,16.45
2022-10-24T19:51:59.739Z,16.43
2022-10-24T19:54:31.911Z,16.40
2022-10-24T19:57:04.117Z,16.35
2022-10-24T19:59:38.531Z,16.29
2022-10-24T20:02:11.884Z,16.23
2022-10-24T20:04:48.095Z,16.20
2022-10-24T20:07:22.231Z,16.18
2022-10-24T20:09:54.519Z,16.16
2022-10-24T20:12:26.652Z,16.17
2022-10-24T20:14:59.109Z,16.16
2022-10-24T20:17:31.352Z,16.15
2022-10-24T20:20:03.578Z,16.14
2022-10-24T20:22:35.706Z,16.11
2022-10-24T20:25:09.165Z,16.09
2022-10-24T20:27:41.988Z,16.07
2022-10-24T20:30:16.027Z,16.06
2022-10-24T20:32:48.130Z,16.04
2022-10-24T20:35:22.311Z,16.01
2022-10-24T20:37:54.463Z,16.01
2022-10-24T20:40:26.796Z,16.01
2022-10-24T20:42:59.105Z,16.00
2022-10-24T20:45:34.204Z,15.98
2022-10-24T20:48:09.532Z,15.95
2022-10-24T20:50:41.752Z,15.93
2022-10-24T20:53:13.856Z,15.90
2022-10-24T20:55:45.988Z,15.89
2022-10-24T20:58:18.129Z,15.88
2022-10-24T21:00:50.285Z,15.85
2022-10-24T21:03:22.499Z,15.82
2022-10-24T21:05:54.625Z,15.76
2022-10-24T21:08:26.806Z,15.74
2022-10-24T21:10:59.333Z,15.75
2022-10-24T21:13:31.505Z,15.79
2022-10-24T21:16:04.196Z,15.85
2022-10-24T21:18:36.348Z,15.92
2022-10-24T21:21:14.249Z,15.99
2022-10-24T21:23:50.842Z,16.05
2022-10-24T21:26:24.017Z,16.11
2022-10-24T21:29:08.506Z,16.14
2022-10-24T21:31:46.993Z,16.18
2022-10-24T21:34:19.589Z,16.21
2022-10-24T21:36:52.018Z,16.23
2022-10-24T21:39:24.100Z,16.28
2022-10-24T21:41:56.269Z,16.30
2022-10-24T21:44:28.418Z,16.32
2022-10-24T21:47:01.033Z,16.32
2022-10-24T21:49:34.617Z,16.33
2022-10-24T21:52:07.072Z,16.32
2022-10-24T21:54:39.232Z,16.29
2022-10-24T21:57:11.393Z,16.22
2022-10-24T21:59:43.674Z,16.17
2022-10-24T22:02:16.052Z,16.07
2022-10-24T22:04:52.031Z,16.08
2022-10-24T22:10:02.709Z,15.99
2022-10-24T22:12:35.865Z,15.96
2022-10-24T22:15:09.629Z,15.91
2022-10-24T22:17:41.793Z,15.87
2022-10-24T22:20:14.516Z,15.85
2022-10-24T22:22:46.994Z,15.81
2022-10-24T22:25:19.335Z,15.77
2022-10-24T22:27:51.580Z,15.73
2022-10-24T22:30:23.735Z,15.67
2022-10-24T22:32:56.639Z,15.66
2022-10-24T22:35:30.343Z,15.63
2022-10-24T22:38:03.302Z,15.60
2022-10-24T22:40:36.874Z,15.53
2022-10-24T22:43:10.458Z,15.47
2022-10-24T22:45:49.124Z,15.42
2022-10-24T22:48:27.033Z,15.37
2022-10-24T22:51:00.065Z,15.36
2022-10-24T22:53:34.129Z,15.34
2022-10-24T22:56:14.625Z,15.31
2022-10-24T22:58:48.199Z,15.30
2022-10-24T23:01:38.343Z,15.29
2022-10-24T23:04:24.071Z,15.27
2022-10-24T23:07:02.825Z,15.24
2022-10-24T23:09:34.977Z,15.21
2022-10-24T23:12:15.427Z,15.17
2022-10-24T23:14:49.245Z,15.13
2022-10-24T23:17:26.625Z,15.11
2022-10-24T23:20:00.250Z,15.09
2022-10-24T23:22:34.314Z,15.06
2022-10-24T23:25:07.953Z,15.03
2022-10-24T23:27:43.402Z,14.98
2022-10-24T23:30:19.092Z,14.91
2022-10-24T23:32:53.204Z,14.81
2022-10-24T23:35:26.397Z,14.74
2022-10-24T23:37:59.330Z,14.73
2022-10-24T23:40:36.965Z,14.71
2022-10-24T23:43:15.021Z,14.71
2022-10-24T23:45:57.006Z,14.73
2022-10-24T23:48:44.244Z,14.72
2022-10-24T23:51:20.130Z,14.72
2022-10-24T23:53:54.778Z,14.69
2022-10-24T23:56:28.995Z,14.67
2022-10-24T23:59:01.095Z,14.66
